Vitoria de Santo Antao, Brazil
Current Conditions -  °F | °C
As of 6:15 AM on Thursday 27 Nov 2014 (Local Time) from SBRF Reporting Station
Moderate Rain Moderate Rain  
Wind Chill: 75°   Ceiling: 1000
Heat Index: 75°   Visibility: 2.5mi
Dew Point: 73°   Wind: 6mph
Humidity: 94%   Direction: 30°NNE
Pressure: 29.91"   Gusts: NA
Location:  8.12°S, 35.29°W
Report Text: SBRF 270915Z 03005KT 4000 RA BKN010 SCT015 BKN080 24/23 Q1013
Loading
Personal Weather Stations






























Interactive Weather Map New forecast layout! Learn more

10-Day Weather Forecast

Advertisements
Track Severe Weather on mobile